sensor_id;sensor_type;location;lat;lon;timestamp;P1;durP1;ratioP1;P2;durP2;ratioP2
61702;SDS011;47622;47.726;3.298;2024-03-02T00:00:51;1.05;;;1.05;;
61702;SDS011;47622;47.726;3.298;2024-03-02T00:03:17;1.10;;;1.00;;
61702;SDS011;47622;47.726;3.298;2024-03-02T00:05:43;1.05;;;1.00;;
61702;SDS011;47622;47.726;3.298;2024-03-02T00:08:13;1.10;;;1.10;;
61702;SDS011;47622;47.726;3.298;2024-03-02T00:10:47;1.00;;;1.00;;
61702;SDS011;47622;47.726;3.298;2024-03-02T00:13:13;1.20;;;1.00;;
61702;SDS011;47622;47.726;3.298;2024-03-02T00:15:46;1.25;;;1.10;;
61702;SDS011;47622;47.726;3.298;2024-03-02T00:18:34;2.38;;;1.00;;
61702;SDS011;47622;47.726;3.298;2024-03-02T00:21:00;1.05;;;1.00;;
61702;SDS011;47622;47.726;3.298;2024-03-02T00:23:29;1.15;;;0.93;;
61702;SDS011;47622;47.726;3.298;2024-03-02T00:25:58;1.27;;;1.17;;
61702;SDS011;47622;47.726;3.298;2024-03-02T00:28:25;1.17;;;1.02;;
61702;SDS011;47622;47.726;3.298;2024-03-02T00:30:57;1.02;;;0.90;;
61702;SDS011;47622;47.726;3.298;2024-03-02T00:33:28;1.50;;;1.00;;
61702;SDS011;47622;47.726;3.298;2024-03-02T00:35:57;2.80;;;1.00;;
61702;SDS011;47622;47.726;3.298;2024-03-02T00:38:24;1.25;;;1.00;;
61702;SDS011;47622;47.726;3.298;2024-03-02T00:40:50;2.40;;;1.00;;
61702;SDS011;47622;47.726;3.298;2024-03-02T00:46:05;0.90;;;0.90;;
61702;SDS011;47622;47.726;3.298;2024-03-02T00:48:31;1.83;;;1.00;;
61702;SDS011;47622;47.726;3.298;2024-03-02T00:50:57;1.50;;;1.20;;
61702;SDS011;47622;47.726;3.298;2024-03-02T00:53:23;3.10;;;1.20;;
61702;SDS011;47622;47.726;3.298;2024-03-02T00:55:51;1.17;;;1.05;;
61702;SDS011;47622;47.726;3.298;2024-03-02T00:58:18;1.83;;;1.10;;
61702;SDS011;47622;47.726;3.298;2024-03-02T01:00:45;1.17;;;1.08;;
61702;SDS011;47622;47.726;3.298;2024-03-02T01:03:10;2.60;;;1.30;;
61702;SDS011;47622;47.726;3.298;2024-03-02T01:05:40;2.05;;;1.20;;
61702;SDS011;47622;47.726;3.298;2024-03-02T01:08:07;1.17;;;1.10;;
61702;SDS011;47622;47.726;3.298;2024-03-02T01:10:33;1.88;;;0.90;;
61702;SDS011;47622;47.726;3.298;2024-03-02T01:12:59;1.63;;;1.10;;
61702;SDS011;47622;47.726;3.298;2024-03-02T01:15:25;2.03;;;1.10;;
61702;SDS011;47622;47.726;3.298;2024-03-02T01:17:50;3.55;;;1.30;;
61702;SDS011;47622;47.726;3.298;2024-03-02T01:20:16;1.77;;;1.27;;
61702;SDS011;47622;47.726;3.298;2024-03-02T01:22:42;4.75;;;1.33;;
61702;SDS011;47622;47.726;3.298;2024-03-02T01:25:08;2.40;;;1.30;;
61702;SDS011;47622;47.726;3.298;2024-03-02T01:27:34;1.52;;;1.38;;
61702;SDS011;47622;47.726;3.298;2024-03-02T01:29:59;2.53;;;1.13;;
61702;SDS011;47622;47.726;3.298;2024-03-02T01:32:25;2.60;;;1.17;;
61702;SDS011;47622;47.726;3.298;2024-03-02T01:34:50;1.00;;;1.00;;
61702;SDS011;47622;47.726;3.298;2024-03-02T01:37:16;2.35;;;1.30;;
61702;SDS011;47622;47.726;3.298;2024-03-02T01:39:42;2.33;;;1.20;;
61702;SDS011;47622;47.726;3.298;2024-03-02T01:42:07;1.55;;;1.10;;
61702;SDS011;47622;47.726;3.298;2024-03-02T01:44:33;1.77;;;1.20;;
61702;SDS011;47622;47.726;3.298;2024-03-02T01:46:58;3.10;;;1.40;;
61702;SDS011;47622;47.726;3.298;2024-03-02T01:49:24;3.05;;;1.25;;
61702;SDS011;47622;47.726;3.298;2024-03-02T01:51:49;1.60;;;1.23;;
61702;SDS011;47622;47.726;3.298;2024-03-02T01:54:15;1.15;;;1.10;;
61702;SDS011;47622;47.726;3.298;2024-03-02T01:56:40;2.65;;;1.48;;
61702;SDS011;47622;47.726;3.298;2024-03-02T01:59:06;3.20;;;1.35;;
61702;SDS011;47622;47.726;3.298;2024-03-02T02:01:32;3.55;;;1.40;;
61702;SDS011;47622;47.726;3.298;2024-03-02T02:03:57;2.03;;;1.58;;
61702;SDS011;47622;47.726;3.298;2024-03-02T02:06:23;1.20;;;1.10;;
61702;SDS011;47622;47.726;3.298;2024-03-02T02:08:49;2.50;;;1.20;;
61702;SDS011;47622;47.726;3.298;2024-03-02T02:11:15;2.60;;;1.33;;
61702;SDS011;47622;47.726;3.298;2024-03-02T02:13:41;3.22;;;1.40;;
61702;SDS011;47622;47.726;3.298;2024-03-02T02:16:07;4.13;;;1.20;;
61702;SDS011;47622;47.726;3.298;2024-03-02T02:18:33;3.38;;;1.40;;
61702;SDS011;47622;47.726;3.298;2024-03-02T02:20:59;3.40;;;1.15;;
61702;SDS011;47622;47.726;3.298;2024-03-02T02:23:25;1.15;;;1.05;;
61702;SDS011;47622;47.726;3.298;2024-03-02T02:25:50;2.65;;;1.17;;
61702;SDS011;47622;47.726;3.298;2024-03-02T02:28:16;3.03;;;1.77;;
61702;SDS011;47622;47.726;3.298;2024-03-02T02:30:41;3.10;;;1.50;;
61702;SDS011;47622;47.726;3.298;2024-03-02T02:33:08;2.33;;;1.15;;
61702;SDS011;47622;47.726;3.298;2024-03-02T02:35:34;1.67;;;1.10;;
61702;SDS011;47622;47.726;3.298;2024-03-02T02:38:00;2.55;;;1.30;;
61702;SDS011;47622;47.726;3.298;2024-03-02T02:40:28;1.98;;;1.05;;
61702;SDS011;47622;47.726;3.298;2024-03-02T02:42:56;1.50;;;1.20;;
61702;SDS011;47622;47.726;3.298;2024-03-02T02:45:24;2.50;;;1.30;;
61702;SDS011;47622;47.726;3.298;2024-03-02T02:47:50;3.08;;;1.48;;
61702;SDS011;47622;47.726;3.298;2024-03-02T02:50:16;4.55;;;1.92;;
61702;SDS011;47622;47.726;3.298;2024-03-02T02:52:42;6.55;;;1.77;;
61702;SDS011;47622;47.726;3.298;2024-03-02T02:55:08;4.18;;;1.58;;
61702;SDS011;47622;47.726;3.298;2024-03-02T02:57:36;4.22;;;1.60;;
61702;SDS011;47622;47.726;3.298;2024-03-02T03:00:11;1.85;;;1.48;;
61702;SDS011;47622;47.726;3.298;2024-03-02T03:02:45;3.65;;;1.40;;
61702;SDS011;47622;47.726;3.298;2024-03-02T03:05:13;2.33;;;1.52;;
61702;SDS011;47622;47.726;3.298;2024-03-02T03:07:40;4.88;;;1.60;;
61702;SDS011;47622;47.726;3.298;2024-03-02T03:10:07;2.63;;;1.30;;
61702;SDS011;47622;47.726;3.298;2024-03-02T03:12:34;2.38;;;1.40;;
61702;SDS011;47622;47.726;3.298;2024-03-02T03:15:00;3.05;;;1.30;;
61702;SDS011;47622;47.726;3.298;2024-03-02T03:17:26;3.78;;;1.83;;
61702;SDS011;47622;47.726;3.298;2024-03-02T03:19:54;5.53;;;1.90;;
61702;SDS011;47622;47.726;3.298;2024-03-02T03:22:20;2.80;;;1.80;;
61702;SDS011;47622;47.726;3.298;2024-03-02T03:24:45;3.25;;;1.75;;
61702;SDS011;47622;47.726;3.298;2024-03-02T03:27:11;9.38;;;2.05;;
61702;SDS011;47622;47.726;3.298;2024-03-02T03:29:37;3.72;;;1.83;;
61702;SDS011;47622;47.726;3.298;2024-03-02T03:32:03;2.53;;;1.50;;
61702;SDS011;47622;47.726;3.298;2024-03-02T03:34:32;3.95;;;1.40;;
61702;SDS011;47622;47.726;3.298;2024-03-02T03:36:58;4.65;;;1.52;;
61702;SDS011;47622;47.726;3.298;2024-03-02T03:39:23;4.20;;;1.77;;
61702;SDS011;47622;47.726;3.298;2024-03-02T03:41:49;6.32;;;2.05;;
61702;SDS011;47622;47.726;3.298;2024-03-02T03:44:15;4.80;;;1.40;;
61702;SDS011;47622;47.726;3.298;2024-03-02T03:46:40;2.72;;;1.75;;
61702;SDS011;47622;47.726;3.298;2024-03-02T03:49:06;4.38;;;1.65;;
61702;SDS011;47622;47.726;3.298;2024-03-02T03:51:33;2.60;;;1.45;;
61702;SDS011;47622;47.726;3.298;2024-03-02T03:53:59;8.85;;;2.00;;
61702;SDS011;47622;47.726;3.298;2024-03-02T03:56:24;6.88;;;1.75;;
61702;SDS011;47622;47.726;3.298;2024-03-02T03:58:50;3.15;;;1.40;;
61702;SDS011;47622;47.726;3.298;2024-03-02T04:01:16;6.22;;;1.48;;
61702;SDS011;47622;47.726;3.298;2024-03-02T04:03:41;2.40;;;1.40;;
61702;SDS011;47622;47.726;3.298;2024-03-02T04:06:07;6.07;;;1.40;;
61702;SDS011;47622;47.726;3.298;2024-03-02T04:08:33;6.50;;;1.48;;
61702;SDS011;47622;47.726;3.298;2024-03-02T04:10:59;1.98;;;1.25;;
61702;SDS011;47622;47.726;3.298;2024-03-02T04:13:24;2.67;;;1.20;;
61702;SDS011;47622;47.726;3.298;2024-03-02T04:15:50;6.35;;;1.63;;
61702;SDS011;47622;47.726;3.298;2024-03-02T04:18:15;5.47;;;1.35;;
61702;SDS011;47622;47.726;3.298;2024-03-02T04:20:41;2.65;;;1.20;;
61702;SDS011;47622;47.726;3.298;2024-03-02T04:23:07;4.03;;;1.50;;
61702;SDS011;47622;47.726;3.298;2024-03-02T04:25:33;3.28;;;1.30;;
61702;SDS011;47622;47.726;3.298;2024-03-02T04:27:59;4.10;;;1.50;;
61702;SDS011;47622;47.726;3.298;2024-03-02T04:30:24;2.05;;;1.50;;
61702;SDS011;47622;47.726;3.298;2024-03-02T04:32:50;5.15;;;1.55;;
61702;SDS011;47622;47.726;3.298;2024-03-02T04:35:16;3.78;;;1.33;;
61702;SDS011;47622;47.726;3.298;2024-03-02T04:37:41;3.90;;;1.42;;
61702;SDS011;47622;47.726;3.298;2024-03-02T04:40:07;4.20;;;1.40;;
61702;SDS011;47622;47.726;3.298;2024-03-02T04:42:34;6.20;;;1.40;;
61702;SDS011;47622;47.726;3.298;2024-03-02T04:45:00;4.90;;;1.38;;
61702;SDS011;47622;47.726;3.298;2024-03-02T04:47:25;3.75;;;1.40;;
61702;SDS011;47622;47.726;3.298;2024-03-02T04:49:51;6.32;;;1.40;;
61702;SDS011;47622;47.726;3.298;2024-03-02T04:52:16;2.70;;;1.40;;
61702;SDS011;47622;47.726;3.298;2024-03-02T04:54:42;3.92;;;1.90;;
61702;SDS011;47622;47.726;3.298;2024-03-02T04:57:26;3.28;;;1.30;;
61702;SDS011;47622;47.726;3.298;2024-03-02T04:59:52;8.63;;;1.58;;
61702;SDS011;47622;47.726;3.298;2024-03-02T05:02:18;3.63;;;1.50;;
61702;SDS011;47622;47.726;3.298;2024-03-02T05:04:43;3.58;;;1.38;;
61702;SDS011;47622;47.726;3.298;2024-03-02T05:07:09;1.40;;;1.20;;
61702;SDS011;47622;47.726;3.298;2024-03-02T05:09:35;1.98;;;1.33;;
61702;SDS011;47622;47.726;3.298;2024-03-02T05:12:00;5.70;;;1.20;;
61702;SDS011;47622;47.726;3.298;2024-03-02T05:14:41;2.83;;;1.15;;
61702;SDS011;47622;47.726;3.298;2024-03-02T05:17:07;2.75;;;1.20;;
61702;SDS011;47622;47.726;3.298;2024-03-02T05:19:32;3.13;;;1.40;;
61702;SDS011;47622;47.726;3.298;2024-03-02T05:21:58;5.57;;;1.40;;
61702;SDS011;47622;47.726;3.298;2024-03-02T05:24:24;2.00;;;1.42;;
61702;SDS011;47622;47.726;3.298;2024-03-02T05:26:53;3.45;;;1.33;;
61702;SDS011;47622;47.726;3.298;2024-03-02T05:29:18;5.90;;;1.60;;
61702;SDS011;47622;47.726;3.298;2024-03-02T05:31:44;4.60;;;2.65;;
61702;SDS011;47622;47.726;3.298;2024-03-02T05:34:09;3.33;;;1.60;;
61702;SDS011;47622;47.726;3.298;2024-03-02T05:36:35;5.38;;;1.40;;
61702;SDS011;47622;47.726;3.298;2024-03-02T05:39:00;4.30;;;1.40;;
61702;SDS011;47622;47.726;3.298;2024-03-02T05:41:27;2.42;;;1.27;;
61702;SDS011;47622;47.726;3.298;2024-03-02T05:43:52;5.13;;;1.63;;
61702;SDS011;47622;47.726;3.298;2024-03-02T05:46:18;3.35;;;1.35;;
61702;SDS011;47622;47.726;3.298;2024-03-02T05:48:43;4.00;;;1.42;;
61702;SDS011;47622;47.726;3.298;2024-03-02T05:51:09;4.55;;;1.33;;
61702;SDS011;47622;47.726;3.298;2024-03-02T05:53:34;3.55;;;1.85;;
61702;SDS011;47622;47.726;3.298;2024-03-02T05:56:03;3.63;;;1.45;;
61702;SDS011;47622;47.726;3.298;2024-03-02T05:58:29;2.92;;;1.20;;
61702;SDS011;47622;47.726;3.298;2024-03-02T06:01:13;3.13;;;1.40;;
61702;SDS011;47622;47.726;3.298;2024-03-02T06:03:39;3.85;;;1.15;;
61702;SDS011;47622;47.726;3.298;2024-03-02T06:06:04;3.38;;;1.25;;
61702;SDS011;47622;47.726;3.298;2024-03-02T06:08:31;1.58;;;1.00;;
61702;SDS011;47622;47.726;3.298;2024-03-02T06:10:56;3.63;;;1.25;;
61702;SDS011;47622;47.726;3.298;2024-03-02T06:13:22;4.10;;;1.45;;
61702;SDS011;47622;47.726;3.298;2024-03-02T06:15:48;2.97;;;1.20;;
61702;SDS011;47622;47.726;3.298;2024-03-02T06:18:14;3.88;;;1.30;;
61702;SDS011;47622;47.726;3.298;2024-03-02T06:20:39;2.33;;;1.25;;
61702;SDS011;47622;47.726;3.298;2024-03-02T06:23:05;3.33;;;1.33;;
61702;SDS011;47622;47.726;3.298;2024-03-02T06:25:30;4.68;;;1.30;;
61702;SDS011;47622;47.726;3.298;2024-03-02T06:27:56;2.05;;;1.40;;
61702;SDS011;47622;47.726;3.298;2024-03-02T06:30:21;2.05;;;1.40;;
61702;SDS011;47622;47.726;3.298;2024-03-02T06:32:47;3.70;;;1.48;;
61702;SDS011;47622;47.726;3.298;2024-03-02T06:35:12;3.58;;;1.27;;
61702;SDS011;47622;47.726;3.298;2024-03-02T06:37:40;3.50;;;1.45;;
61702;SDS011;47622;47.726;3.298;2024-03-02T06:40:06;6.55;;;1.60;;
61702;SDS011;47622;47.726;3.298;2024-03-02T06:42:33;3.80;;;1.35;;
61702;SDS011;47622;47.726;3.298;2024-03-02T06:44:59;3.63;;;1.83;;
61702;SDS011;47622;47.726;3.298;2024-03-02T06:47:25;2.53;;;1.20;;
61702;SDS011;47622;47.726;3.298;2024-03-02T06:49:50;3.60;;;1.40;;
61702;SDS011;47622;47.726;3.298;2024-03-02T06:52:16;3.38;;;1.50;;
61702;SDS011;47622;47.726;3.298;2024-03-02T06:54:42;2.20;;;1.40;;
61702;SDS011;47622;47.726;3.298;2024-03-02T06:57:07;5.38;;;1.17;;
61702;SDS011;47622;47.726;3.298;2024-03-02T06:59:33;2.55;;;1.40;;
61702;SDS011;47622;47.726;3.298;2024-03-02T07:01:58;2.97;;;1.20;;
61702;SDS011;47622;47.726;3.298;2024-03-02T07:04:24;2.75;;;1.30;;
61702;SDS011;47622;47.726;3.298;2024-03-02T07:06:50;2.13;;;1.10;;
61702;SDS011;47622;47.726;3.298;2024-03-02T07:09:16;2.88;;;1.55;;
61702;SDS011;47622;47.726;3.298;2024-03-02T07:11:42;3.08;;;1.45;;
61702;SDS011;47622;47.726;3.298;2024-03-02T07:14:08;1.80;;;1.50;;
61702;SDS011;47622;47.726;3.298;2024-03-02T07:16:33;4.32;;;1.40;;
61702;SDS011;47622;47.726;3.298;2024-03-02T07:18:59;7.35;;;1.60;;
61702;SDS011;47622;47.726;3.298;2024-03-02T07:21:27;4.43;;;1.50;;
61702;SDS011;47622;47.726;3.298;2024-03-02T07:23:52;3.88;;;1.50;;
61702;SDS011;47622;47.726;3.298;2024-03-02T07:26:18;4.15;;;1.40;;
61702;SDS011;47622;47.726;3.298;2024-03-02T07:28:47;1.85;;;1.20;;
61702;SDS011;47622;47.726;3.298;2024-03-02T07:31:14;1.80;;;1.27;;
61702;SDS011;47622;47.726;3.298;2024-03-02T07:33:40;1.77;;;1.20;;
61702;SDS011;47622;47.726;3.298;2024-03-02T07:36:06;3.90;;;1.42;;
61702;SDS011;47622;47.726;3.298;2024-03-02T07:38:32;2.13;;;1.05;;
61702;SDS011;47622;47.726;3.298;2024-03-02T07:41:00;2.05;;;0.93;;
61702;SDS011;47622;47.726;3.298;2024-03-02T07:43:25;2.20;;;1.25;;
61702;SDS011;47622;47.726;3.298;2024-03-02T07:45:51;2.08;;;1.20;;
61702;SDS011;47622;47.726;3.298;2024-03-02T07:48:17;3.53;;;1.40;;
61702;SDS011;47622;47.726;3.298;2024-03-02T07:50:42;1.65;;;1.20;;
61702;SDS011;47622;47.726;3.298;2024-03-02T07:53:08;4.60;;;1.30;;
61702;SDS011;47622;47.726;3.298;2024-03-02T07:55:34;3.05;;;1.30;;
61702;SDS011;47622;47.726;3.298;2024-03-02T07:58:02;2.05;;;1.30;;
61702;SDS011;47622;47.726;3.298;2024-03-02T08:00:28;1.30;;;1.20;;
61702;SDS011;47622;47.726;3.298;2024-03-02T08:02:53;2.83;;;1.40;;
61702;SDS011;47622;47.726;3.298;2024-03-02T08:05:20;1.35;;;1.08;;
61702;SDS011;47622;47.726;3.298;2024-03-02T08:07:46;3.28;;;1.10;;
61702;SDS011;47622;47.726;3.298;2024-03-02T08:10:12;4.68;;;1.58;;
61702;SDS011;47622;47.726;3.298;2024-03-02T08:12:38;4.10;;;1.17;;
61702;SDS011;47622;47.726;3.298;2024-03-02T08:15:04;3.53;;;1.30;;
61702;SDS011;47622;47.726;3.298;2024-03-02T08:17:30;1.38;;;1.13;;
61702;SDS011;47622;47.726;3.298;2024-03-02T08:19:56;3.97;;;1.00;;
61702;SDS011;47622;47.726;3.298;2024-03-02T08:22:23;1.30;;;0.93;;
61702;SDS011;47622;47.726;3.298;2024-03-02T08:24:50;2.10;;;1.00;;
61702;SDS011;47622;47.726;3.298;2024-03-02T08:27:17;1.70;;;0.90;;
61702;SDS011;47622;47.726;3.298;2024-03-02T08:29:43;2.33;;;1.20;;
61702;SDS011;47622;47.726;3.298;2024-03-02T08:32:08;2.03;;;0.93;;
61702;SDS011;47622;47.726;3.298;2024-03-02T08:34:34;2.05;;;0.98;;
61702;SDS011;47622;47.726;3.298;2024-03-02T08:37:03;1.95;;;0.80;;
61702;SDS011;47622;47.726;3.298;2024-03-02T08:39:29;1.50;;;0.90;;
61702;SDS011;47622;47.726;3.298;2024-03-02T08:41:54;3.00;;;0.98;;
61702;SDS011;47622;47.726;3.298;2024-03-02T08:44:20;3.03;;;1.10;;
61702;SDS011;47622;47.726;3.298;2024-03-02T08:46:46;1.10;;;1.00;;
61702;SDS011;47622;47.726;3.298;2024-03-02T08:49:12;1.10;;;1.00;;
61702;SDS011;47622;47.726;3.298;2024-03-02T08:51:38;1.08;;;0.90;;
61702;SDS011;47622;47.726;3.298;2024-03-02T08:54:04;1.25;;;0.70;;
61702;SDS011;47622;47.726;3.298;2024-03-02T08:56:30;2.50;;;1.00;;
61702;SDS011;47622;47.726;3.298;2024-03-02T08:58:56;4.25;;;0.88;;
61702;SDS011;47622;47.726;3.298;2024-03-02T09:01:22;2.30;;;1.20;;
61702;SDS011;47622;47.726;3.298;2024-03-02T09:03:47;2.30;;;1.10;;
61702;SDS011;47622;47.726;3.298;2024-03-02T09:06:14;3.65;;;0.90;;
61702;SDS011;47622;47.726;3.298;2024-03-02T09:08:42;2.22;;;0.80;;
61702;SDS011;47622;47.726;3.298;2024-03-02T09:11:08;2.35;;;0.88;;
61702;SDS011;47622;47.726;3.298;2024-03-02T09:13:35;2.67;;;1.20;;
61702;SDS011;47622;47.726;3.298;2024-03-02T09:16:02;3.17;;;0.95;;
61702;SDS011;47622;47.726;3.298;2024-03-02T09:18:28;2.85;;;1.00;;
61702;SDS011;47622;47.726;3.298;2024-03-02T09:20:54;2.83;;;1.20;;
61702;SDS011;47622;47.726;3.298;2024-03-02T09:23:20;2.03;;;1.02;;
61702;SDS011;47622;47.726;3.298;2024-03-02T09:25:46;2.45;;;0.95;;
61702;SDS011;47622;47.726;3.298;2024-03-02T09:28:11;1.85;;;0.80;;
61702;SDS011;47622;47.726;3.298;2024-03-02T09:30:37;2.05;;;1.00;;
61702;SDS011;47622;47.726;3.298;2024-03-02T09:33:03;1.58;;;0.90;;
61702;SDS011;47622;47.726;3.298;2024-03-02T09:35:29;3.30;;;2.00;;
61702;SDS011;47622;47.726;3.298;2024-03-02T09:37:55;4.30;;;1.10;;
61702;SDS011;47622;47.726;3.298;2024-03-02T09:40:21;1.25;;;0.95;;
61702;SDS011;47622;47.726;3.298;2024-03-02T09:42:47;1.52;;;1.10;;
61702;SDS011;47622;47.726;3.298;2024-03-02T09:45:20;3.50;;;1.55;;
61702;SDS011;47622;47.726;3.298;2024-03-02T09:47:49;1.85;;;1.20;;
61702;SDS011;47622;47.726;3.298;2024-03-02T09:50:14;1.38;;;0.90;;
61702;SDS011;47622;47.726;3.298;2024-03-02T09:52:42;1.60;;;1.08;;
61702;SDS011;47622;47.726;3.298;2024-03-02T09:55:08;5.63;;;1.15;;
61702;SDS011;47622;47.726;3.298;2024-03-02T09:57:34;3.28;;;1.20;;
61702;SDS011;47622;47.726;3.298;2024-03-02T10:00:00;2.03;;;1.20;;
61702;SDS011;47622;47.726;3.298;2024-03-02T10:02:25;2.78;;;1.00;;
61702;SDS011;47622;47.726;3.298;2024-03-02T10:04:51;1.25;;;1.00;;
61702;SDS011;47622;47.726;3.298;2024-03-02T10:07:17;1.45;;;1.00;;
61702;SDS011;47622;47.726;3.298;2024-03-02T10:09:48;2.17;;;0.80;;
61702;SDS011;47622;47.726;3.298;2024-03-02T10:12:14;1.25;;;1.15;;
61702;SDS011;47622;47.726;3.298;2024-03-02T10:14:41;2.35;;;1.00;;
61702;SDS011;47622;47.726;3.298;2024-03-02T10:17:08;2.47;;;1.05;;
61702;SDS011;47622;47.726;3.298;2024-03-02T10:19:35;0.73;;;0.73;;
61702;SDS011;47622;47.726;3.298;2024-03-02T10:22:05;1.50;;;0.90;;
61702;SDS011;47622;47.726;3.298;2024-03-02T10:24:49;1.30;;;0.90;;
61702;SDS011;47622;47.726;3.298;2024-03-02T10:29:42;1.98;;;1.08;;
61702;SDS011;47622;47.726;3.298;2024-03-02T10:32:09;0.90;;;0.85;;
61702;SDS011;47622;47.726;3.298;2024-03-02T10:34:36;1.55;;;0.93;;
61702;SDS011;47622;47.726;3.298;2024-03-02T10:37:02;1.30;;;0.80;;
61702;SDS011;47622;47.726;3.298;2024-03-02T10:39:28;1.02;;;0.90;;
61702;SDS011;47622;47.726;3.298;2024-03-02T10:41:55;0.88;;;0.82;;
61702;SDS011;47622;47.726;3.298;2024-03-02T10:44:22;0.90;;;0.90;;
61702;SDS011;47622;47.726;3.298;2024-03-02T10:46:48;1.08;;;0.85;;
61702;SDS011;47622;47.726;3.298;2024-03-02T10:49:18;1.42;;;0.80;;
61702;SDS011;47622;47.726;3.298;2024-03-02T10:51:45;0.70;;;0.70;;
61702;SDS011;47622;47.726;3.298;2024-03-02T10:54:11;0.85;;;0.82;;
61702;SDS011;47622;47.726;3.298;2024-03-02T10:56:40;2.15;;;0.80;;
61702;SDS011;47622;47.726;3.298;2024-03-02T11:01:57;0.70;;;0.70;;
61702;SDS011;47622;47.726;3.298;2024-03-02T11:04:25;1.67;;;0.75;;
61702;SDS011;47622;47.726;3.298;2024-03-02T11:06:54;1.58;;;0.70;;
61702;SDS011;47622;47.726;3.298;2024-03-02T11:09:26;0.70;;;0.70;;
61702;SDS011;47622;47.726;3.298;2024-03-02T11:11:56;0.70;;;0.70;;
61702;SDS011;47622;47.726;3.298;2024-03-02T11:14:28;0.88;;;0.70;;
61702;SDS011;47622;47.726;3.298;2024-03-02T11:16:57;1.10;;;0.80;;
61702;SDS011;47622;47.726;3.298;2024-03-02T11:19:23;0.73;;;0.73;;
61702;SDS011;47622;47.726;3.298;2024-03-02T11:21:49;2.72;;;0.57;;
61702;SDS011;47622;47.726;3.298;2024-03-02T11:26:50;0.50;;;0.50;;
61702;SDS011;47622;47.726;3.298;2024-03-02T11:32:01;2.50;;;0.88;;
61702;SDS011;47622;47.726;3.298;2024-03-02T11:34:40;1.95;;;0.80;;
61702;SDS011;47622;47.726;3.298;2024-03-02T11:37:11;0.77;;;0.77;;
61702;SDS011;47622;47.726;3.298;2024-03-02T11:39:41;0.82;;;0.70;;
61702;SDS011;47622;47.726;3.298;2024-03-02T11:42:09;0.63;;;0.63;;
61702;SDS011;47622;47.726;3.298;2024-03-02T11:44:36;0.65;;;0.65;;
61702;SDS011;47622;47.726;3.298;2024-03-02T11:47:06;0.93;;;0.77;;
61702;SDS011;47622;47.726;3.298;2024-03-02T11:52:03;0.77;;;0.75;;
61702;SDS011;47622;47.726;3.298;2024-03-02T11:54:30;0.63;;;0.63;;
61702;SDS011;47622;47.726;3.298;2024-03-02T11:56:59;0.77;;;0.77;;
61702;SDS011;47622;47.726;3.298;2024-03-02T11:59:29;1.85;;;1.10;;
61702;SDS011;47622;47.726;3.298;2024-03-02T12:01:55;0.73;;;0.73;;
61702;SDS011;47622;47.726;3.298;2024-03-02T12:04:21;1.55;;;0.80;;
61702;SDS011;47622;47.726;3.298;2024-03-02T12:06:48;0.90;;;0.90;;
61702;SDS011;47622;47.726;3.298;2024-03-02T12:09:34;1.23;;;0.90;;
61702;SDS011;47622;47.726;3.298;2024-03-02T12:12:06;1.33;;;0.90;;
61702;SDS011;47622;47.726;3.298;2024-03-02T12:14:33;1.35;;;1.00;;
61702;SDS011;47622;47.726;3.298;2024-03-02T12:17:01;1.30;;;1.20;;
61702;SDS011;47622;47.726;3.298;2024-03-02T12:19:27;0.98;;;0.98;;
61702;SDS011;47622;47.726;3.298;2024-03-02T12:21:54;1.00;;;1.00;;
61702;SDS011;47622;47.726;3.298;2024-03-02T12:24:21;1.52;;;0.90;;
61702;SDS011;47622;47.726;3.298;2024-03-02T12:26:48;1.08;;;1.00;;
61702;SDS011;47622;47.726;3.298;2024-03-02T12:29:18;1.45;;;0.80;;
61702;SDS011;47622;47.726;3.298;2024-03-02T12:31:44;1.30;;;1.08;;
61702;SDS011;47622;47.726;3.298;2024-03-02T12:34:11;0.88;;;0.88;;
61702;SDS011;47622;47.726;3.298;2024-03-02T12:36:39;1.30;;;1.20;;
61702;SDS011;47622;47.726;3.298;2024-03-02T12:39:06;2.63;;;1.08;;
61702;SDS011;47622;47.726;3.298;2024-03-02T12:41:35;1.27;;;1.10;;
61702;SDS011;47622;47.726;3.298;2024-03-02T12:44:07;1.63;;;1.15;;
61702;SDS011;47622;47.726;3.298;2024-03-02T12:46:32;1.85;;;1.20;;
61702;SDS011;47622;47.726;3.298;2024-03-02T12:49:10;2.97;;;1.70;;
61702;SDS011;47622;47.726;3.298;2024-03-02T12:51:38;1.23;;;1.13;;
61702;SDS011;47622;47.726;3.298;2024-03-02T12:54:08;2.67;;;1.27;;
61702;SDS011;47622;47.726;3.298;2024-03-02T12:56:37;1.70;;;1.30;;
61702;SDS011;47622;47.726;3.298;2024-03-02T12:59:03;3.50;;;1.10;;
61702;SDS011;47622;47.726;3.298;2024-03-02T13:01:32;2.20;;;1.30;;
61702;SDS011;47622;47.726;3.298;2024-03-02T13:03:58;1.73;;;1.30;;
61702;SDS011;47622;47.726;3.298;2024-03-02T13:06:24;1.90;;;1.38;;
61702;SDS011;47622;47.726;3.298;2024-03-02T13:08:53;1.48;;;1.38;;
61702;SDS011;47622;47.726;3.298;2024-03-02T13:11:20;4.03;;;1.30;;
61702;SDS011;47622;47.726;3.298;2024-03-02T13:13:49;2.15;;;1.45;;
61702;SDS011;47622;47.726;3.298;2024-03-02T13:16:15;1.15;;;1.13;;
61702;SDS011;47622;47.726;3.298;2024-03-02T13:18:42;1.88;;;1.55;;
61702;SDS011;47622;47.726;3.298;2024-03-02T13:21:09;2.35;;;1.42;;
61702;SDS011;47622;47.726;3.298;2024-03-02T13:23:35;1.40;;;1.30;;
61702;SDS011;47622;47.726;3.298;2024-03-02T13:26:01;2.42;;;1.55;;
61702;SDS011;47622;47.726;3.298;2024-03-02T13:28:26;2.83;;;1.50;;
61702;SDS011;47622;47.726;3.298;2024-03-02T13:30:52;1.50;;;1.40;;
61702;SDS011;47622;47.726;3.298;2024-03-02T13:33:18;1.58;;;1.30;;
61702;SDS011;47622;47.726;3.298;2024-03-02T13:35:50;2.15;;;1.60;;
61702;SDS011;47622;47.726;3.298;2024-03-02T13:38:16;2.28;;;1.75;;
61702;SDS011;47622;47.726;3.298;2024-03-02T13:40:43;1.88;;;1.60;;
61702;SDS011;47622;47.726;3.298;2024-03-02T13:43:08;2.85;;;1.38;;
61702;SDS011;47622;47.726;3.298;2024-03-02T13:45:34;3.22;;;1.40;;
61702;SDS011;47622;47.726;3.298;2024-03-02T13:48:00;2.22;;;1.33;;
61702;SDS011;47622;47.726;3.298;2024-03-02T13:50:27;2.20;;;1.45;;
61702;SDS011;47622;47.726;3.298;2024-03-02T13:52:54;2.72;;;1.90;;
61702;SDS011;47622;47.726;3.298;2024-03-02T13:55:19;1.88;;;1.40;;
61702;SDS011;47622;47.726;3.298;2024-03-02T13:57:45;2.33;;;1.40;;
61702;SDS011;47622;47.726;3.298;2024-03-02T14:00:12;2.08;;;1.45;;
61702;SDS011;47622;47.726;3.298;2024-03-02T14:02:38;2.15;;;1.73;;
61702;SDS011;47622;47.726;3.298;2024-03-02T14:05:04;3.08;;;1.63;;
61702;SDS011;47622;47.726;3.298;2024-03-02T14:07:34;2.03;;;1.58;;
61702;SDS011;47622;47.726;3.298;2024-03-02T14:09:59;4.13;;;1.80;;
61702;SDS011;47622;47.726;3.298;2024-03-02T14:12:25;2.53;;;1.77;;
61702;SDS011;47622;47.726;3.298;2024-03-02T14:14:50;3.00;;;1.58;;
61702;SDS011;47622;47.726;3.298;2024-03-02T14:17:18;2.30;;;1.58;;
61702;SDS011;47622;47.726;3.298;2024-03-02T14:19:44;2.45;;;1.42;;
61702;SDS011;47622;47.726;3.298;2024-03-02T14:22:09;2.65;;;1.60;;
61702;SDS011;47622;47.726;3.298;2024-03-02T14:24:34;2.05;;;1.52;;
61702;SDS011;47622;47.726;3.298;2024-03-02T14:27:00;2.42;;;1.70;;
61702;SDS011;47622;47.726;3.298;2024-03-02T14:29:28;2.40;;;1.50;;
61702;SDS011;47622;47.726;3.298;2024-03-02T14:31:54;5.82;;;1.80;;
61702;SDS011;47622;47.726;3.298;2024-03-02T14:34:19;3.88;;;1.88;;
61702;SDS011;47622;47.726;3.298;2024-03-02T14:36:45;4.15;;;1.60;;
61702;SDS011;47622;47.726;3.298;2024-03-02T14:39:11;4.28;;;1.40;;
61702;SDS011;47622;47.726;3.298;2024-03-02T14:41:36;4.90;;;1.77;;
61702;SDS011;47622;47.726;3.298;2024-03-02T14:44:02;1.50;;;1.30;;
61702;SDS011;47622;47.726;3.298;2024-03-02T14:46:28;1.83;;;1.45;;
61702;SDS011;47622;47.726;3.298;2024-03-02T14:48:54;2.03;;;1.60;;
61702;SDS011;47622;47.726;3.298;2024-03-02T14:51:20;1.92;;;1.50;;
61702;SDS011;47622;47.726;3.298;2024-03-02T14:53:45;2.03;;;1.50;;
61702;SDS011;47622;47.726;3.298;2024-03-02T14:56:11;3.25;;;1.80;;
61702;SDS011;47622;47.726;3.298;2024-03-02T14:58:38;1.75;;;1.40;;
61702;SDS011;47622;47.726;3.298;2024-03-02T15:01:04;2.08;;;1.58;;